IN-0067 weather

Public forecast

Using degrees Celsius for public forecast. Weather courtesy of forecast.io.

Closest aviation weather report (METAR) to Madhubani Airport

Closest report is Lok Nayak Jayaprakash Airport, 68.7 nm (127.2 km) SW. Retrieved 2020/08/12 12:30 UTC (19 minutes ago):

VEPT 121230Z 10007KT 4000 HZ SCT018 BKN100 28/24 Q0998 NOSIG

Closest aviation forecast (TAF) to Madhubani Airport

Closest forecast is Lok Nayak Jayaprakash Airport, 68.7 nm (127.2 km) SW. Retrieved 2020/08/12 12:00 UTC (49 minutes ago):

TAF VEPT 121100Z 1212/1221 12006KT 4000 HZ SCT018 BKN100 BECMG 1216/1218 3000 BR HZ SCT018 BKN100